Terminal Aerodrome Forecast
Issued by NWS

Home | Current Version | Previous Version | Text Only | Print | Product List | Glossary On
Versions: 1 2 3 4 5 6 7 8 9 10 11 12 13 14 15 16 17 18 19 20 21 22 23 24 25 26 27 28 29 30 31 32 33 34 35 36 37 38 39 40 41 42 43 44 45 46 47 48 49 50
000
FTUS43 KMKX 221225 AAA
TAFENW
TAF AMD
KENW 221225Z 2212/2312 14003KT 1SM BR OVC003
      TEMPO 2212/2214 3/4SM BR OVC002
     FM221400 12004KT 2SM BR OVC003
      TEMPO 2214/2215 1SM BR
     FM221500 10004KT 3SM BR BKN009
     FM221700 10006KT P6SM SCT025
     FM230300 VRB03KT 3SM BR SCT110
     FM230600 00000KT 1/2SM FG BKN003=

USA.gov is the U.S. government's official web portal to all federal, state and local government web resources and services.